Time;durP1;ratioP1;P1;durP2;ratioP2;P2;SDS_P1;SDS_P2;PMS_P1;PMS_P2;Temp;Humidity;BMP_temperature;BMP_pressure;BME280_temperature;BME280_humidity;BME280_pressure;Samples;Min_cycle;Max_cycle;Signal;HPM_P1;HPM_P2
2022/08/07 00:00:57;;;;;;;1.98;0.50;;;17.80;79.10;;;;;;4933804;29;20024;-47
2022/08/07 00:03:24;;;;;;;1.25;0.45;;;17.70;79.40;;;;;;4933576;29;20032;-47
2022/08/07 00:05:51;;;;;;;2.55;0.60;;;17.60;79.30;;;;;;4933767;29;20543;-46
2022/08/07 00:08:18;;;;;;;0.98;0.50;;;17.60;79.40;;;;;;4935296;29;20034;-46
2022/08/07 00:10:43;;;;;;;0.80;0.60;;;17.50;79.60;;;;;;4937483;29;20060;-46
2022/08/07 00:13:10;;;;;;;3.95;0.80;;;17.60;79.80;;;;;;4937001;29;20469;-45
2022/08/07 00:15:36;;;;;;;1.80;0.45;;;17.50;80.00;;;;;;4937139;29;20031;-47
2022/08/07 00:18:01;;;;;;;1.55;0.70;;;17.50;79.90;;;;;;4937336;29;20083;-45
2022/08/07 00:20:27;;;;;;;4.50;1.05;;;17.50;79.90;;;;;;4937250;29;20028;-46
2022/08/07 00:22:52;;;;;;;1.30;0.57;;;17.40;80.30;;;;;;4936801;29;20532;-49
2022/08/07 00:25:18;;;;;;;0.40;0.40;;;17.40;80.20;;;;;;4937142;29;20032;-46
2022/08/07 00:27:44;;;;;;;3.58;0.75;;;17.40;80.40;;;;;;4937080;29;20119;-46
2022/08/07 00:30:10;;;;;;;1.05;0.60;;;17.40;80.40;;;;;;4937000;29;20028;-48
2022/08/07 00:32:35;;;;;;;0.60;0.60;;;17.50;80.20;;;;;;4936679;29;20028;-47
2022/08/07 00:35:01;;;;;;;0.93;0.82;;;17.40;80.30;;;;;;4937112;29;20074;-44
2022/08/07 00:37:26;;;;;;;1.65;0.98;;;17.30;80.40;;;;;;4937015;29;20114;-50
2022/08/07 00:39:55;;;;;;;2.83;0.70;;;17.40;80.70;;;;;;4937384;29;20035;-47
2022/08/07 00:42:21;;;;;;;4.38;0.60;;;17.30;80.70;;;;;;4936552;29;20035;-47
2022/08/07 00:44:46;;;;;;;0.88;0.55;;;17.30;80.70;;;;;;4936733;29;20036;-46
2022/08/07 00:47:12;;;;;;;0.98;0.57;;;17.20;80.70;;;;;;4936773;29;20400;-48
2022/08/07 00:49:38;;;;;;;3.42;0.70;;;17.20;80.80;;;;;;4935445;29;20067;-47
2022/08/07 00:52:08;;;;;;;0.50;0.50;;;17.20;80.80;;;;;;4936547;29;20043;-46
2022/08/07 00:54:34;;;;;;;1.63;0.52;;;17.20;80.90;;;;;;4936597;29;20016;-49
2022/08/07 00:56:59;;;;;;;1.65;0.60;;;17.20;81.10;;;;;;4936529;29;20489;-47
2022/08/07 00:59:25;;;;;;;0.95;0.47;;;17.10;81.10;;;;;;4936470;29;20040;-48
2022/08/07 01:01:51;;;;;;;1.38;0.52;;;17.10;81.20;;;;;;4936483;29;20032;-45
2022/08/07 01:04:17;;;;;;;2.78;0.50;;;17.10;81.30;;;;;;4936488;29;20317;-50
2022/08/07 01:06:44;;;;;;;2.72;0.75;;;17.10;81.40;;;;;;4936344;29;20036;-47
2022/08/07 01:09:09;;;;;;;1.15;0.60;;;17.10;81.30;;;;;;4936384;29;20016;-46
2022/08/07 01:11:36;;;;;;;0.75;0.70;;;17.10;81.60;;;;;;4934842;29;20098;-49
2022/08/07 01:14:02;;;;;;;2.63;0.60;;;17.10;81.60;;;;;;4935987;29;20087;-48
2022/08/07 01:16:28;;;;;;;1.20;0.57;;;17.10;81.60;;;;;;4935109;29;20036;-47
2022/08/07 01:18:54;;;;;;;1.30;0.50;;;17.10;81.70;;;;;;4935754;29;20031;-49
2022/08/07 01:21:23;;;;;;;0.40;0.40;;;17.10;81.70;;;;;;4936150;29;20027;-45
2022/08/07 01:23:50;;;;;;;0.40;0.40;;;16.90;81.70;;;;;;4935702;29;20110;-48
2022/08/07 01:26:17;;;;;;;5.88;0.45;;;17.00;82.00;;;;;;4935996;29;20028;-46
2022/08/07 01:28:44;;;;;;;0.50;0.50;;;16.90;81.80;;;;;;4935836;29;20107;-51
2022/08/07 01:31:10;;;;;;;0.60;0.60;;;16.80;81.90;;;;;;4936059;29;20473;-46
2022/08/07 01:33:36;;;;;;;0.50;0.50;;;16.90;81.80;;;;;;4935653;29;20046;-46
2022/08/07 01:36:02;;;;;;;5.72;0.70;;;16.90;82.00;;;;;;4935871;29;20074;-47
2022/08/07 01:38:29;;;;;;;1.63;0.60;;;16.90;81.90;;;;;;4935908;29;20167;-46
2022/08/07 01:40:58;;;;;;;0.60;0.60;;;16.90;82.00;;;;;;4936189;29;20036;-48
2022/08/07 01:43:26;;;;;;;2.08;0.73;;;16.90;82.00;;;;;;4935507;29;20034;-49
2022/08/07 01:45:52;;;;;;;1.20;0.57;;;16.90;81.70;;;;;;4935652;29;20401;-50
2022/08/07 01:48:18;;;;;;;1.20;0.50;;;16.90;82.70;;;;;;4935692;29;20629;-51
2022/08/07 01:50:48;;;;;;;2.17;0.70;;;16.90;81.80;;;;;;4935539;29;20126;-49
2022/08/07 01:53:15;;;;;;;1.17;0.50;;;16.90;82.00;;;;;;4935146;29;20099;-45
2022/08/07 01:55:51;;;;;;;1.73;0.60;;;16.90;82.20;;;;;;4935571;29;20035;-45
2022/08/07 01:58:18;;;;;;;;;;;16.90;82.10;;;;;;4936206;29;20024;-46
2022/08/07 02:00:45;;;;;;;1.00;0.70;;;16.80;82.00;;;;;;4935470;29;19907;-46
2022/08/07 02:03:14;;;;;;;2.05;0.70;;;16.80;82.10;;;;;;4935122;29;20031;-46
2022/08/07 02:05:53;;;;;;;3.17;0.65;;;16.90;82.40;;;;;;4935156;29;20031;-49
2022/08/07 02:08:22;;;;;;;3.15;0.60;;;16.80;82.30;;;;;;4935350;29;20040;-46
2022/08/07 02:10:52;;;;;;;5.28;0.80;;;16.80;82.60;;;;;;4935097;29;20107;-46
2022/08/07 02:13:20;;;;;;;0.93;0.68;;;16.80;82.50;;;;;;4934872;29;20020;-48
2022/08/07 02:15:49;;;;;;;1.27;0.65;;;16.70;82.60;;;;;;4935276;29;20491;-50
2022/08/07 02:18:16;;;;;;;0.73;0.57;;;16.70;82.70;;;;;;4935013;29;20047;-50
2022/08/07 02:20:46;;;;;;;0.40;0.40;;;16.70;82.80;;;;;;4935206;29;20027;-48
2022/08/07 02:23:13;;;;;;;2.28;0.50;;;16.70;83.00;;;;;;4934748;29;20074;-47
2022/08/07 02:25:40;;;;;;;1.65;0.60;;;16.60;83.00;;;;;;4935160;29;20119;-47
2022/08/07 02:28:07;;;;;;;0.57;0.57;;;16.60;82.90;;;;;;4935004;29;20032;-47
2022/08/07 02:30:35;;;;;;;0.45;0.45;;;16.60;83.20;;;;;;4934342;29;20020;-46
2022/08/07 02:33:03;;;;;;;2.30;0.52;;;16.50;83.30;;;;;;4934483;29;20032;-47
2022/08/07 02:35:31;;;;;;;0.95;0.60;;;16.50;83.40;;;;;;4934948;29;20032;-46
2022/08/07 02:37:57;;;;;;;2.15;0.50;;;16.50;83.50;;;;;;4934826;29;20019;-47
2022/08/07 02:40:23;;;;;;;16.73;11.85;;;16.50;83.60;;;;;;4935189;29;20422;-50
2022/08/07 02:42:50;;;;;;;31.55;21.55;;;16.50;83.90;;;;;;4934334;29;20390;-47
2022/08/07 02:45:18;;;;;;;2.17;0.70;;;16.50;84.00;;;;;;4934802;29;20031;-49
2022/08/07 02:47:44;;;;;;;2.17;0.80;;;16.40;83.80;;;;;;4933760;29;20106;-45
2022/08/07 02:50:10;;;;;;;1.27;0.70;;;16.30;84.00;;;;;;4934712;29;20493;-47
2022/08/07 02:52:43;;;;;;;0.60;0.60;;;16.30;84.20;;;;;;4934255;29;20024;-48
2022/08/07 02:55:21;;;;;;;1.20;0.70;;;16.30;84.10;;;;;;4934599;29;20031;-48
2022/08/07 02:57:48;;;;;;;3.00;0.93;;;16.30;84.50;;;;;;4934338;29;20036;-46
2022/08/07 03:00:15;;;;;;;0.80;0.52;;;16.30;84.40;;;;;;4934621;29;20024;-44
2022/08/07 03:02:44;;;;;;;1.73;0.50;;;16.20;84.60;;;;;;4935093;29;20036;-44
2022/08/07 03:05:11;;;;;;;1.65;0.60;;;16.10;85.00;;;;;;4934268;29;20055;-43
2022/08/07 03:07:37;;;;;;;0.50;0.50;;;16.10;85.20;;;;;;4934381;29;20032;-43
2022/08/07 03:10:04;;;;;;;0.75;0.60;;;16.10;85.20;;;;;;4933121;29;20297;-42
2022/08/07 03:12:32;;;;;;;3.78;0.70;;;16.10;85.40;;;;;;4934008;29;20031;-43
2022/08/07 03:14:58;;;;;;;0.88;0.75;;;16.00;85.50;;;;;;4934609;29;20020;-46
2022/08/07 03:17:24;;;;;;;0.50;0.50;;;15.90;86.00;;;;;;4934254;29;20122;-42
2022/08/07 03:19:50;;;;;;;1.60;0.60;;;15.90;86.00;;;;;;4934241;29;20069;-45
2022/08/07 03:22:18;;;;;;;0.60;0.60;;;15.90;86.20;;;;;;4933844;29;20039;-43
2022/08/07 03:24:43;;;;;;;3.10;0.68;;;15.90;86.30;;;;;;4934318;29;20028;-40
2022/08/07 03:27:09;;;;;;;0.63;0.60;;;15.90;86.50;;;;;;4933438;29;20086;-41
2022/08/07 03:29:47;;;;;;;0.50;0.50;;;15.80;86.50;;;;;;4934171;29;20034;-42
2022/08/07 03:32:15;;;;;;;0.98;0.82;;;15.80;86.70;;;;;;4934032;29;20020;-43
2022/08/07 03:34:43;;;;;;;1.05;0.70;;;15.80;86.70;;;;;;4934266;29;20457;-43
2022/08/07 03:37:10;;;;;;;2.53;0.65;;;15.80;86.70;;;;;;4934081;29;20028;-42
2022/08/07 03:39:37;;;;;;;0.88;0.68;;;15.80;87.00;;;;;;4934100;29;20038;-43
2022/08/07 03:42:04;;;;;;;0.45;0.43;;;15.80;87.20;;;;;;4934941;29;20035;-47
2022/08/07 03:44:32;;;;;;;2.28;0.50;;;15.80;87.30;;;;;;4936626;29;20441;-42
2022/08/07 03:46:59;;;;;;;0.40;0.40;;;15.70;87.40;;;;;;4938099;29;20405;-42
2022/08/07 03:49:24;;;;;;;1.27;0.60;;;15.80;87.40;;;;;;4937846;29;20127;-45
2022/08/07 03:51:51;;;;;;;2.55;0.73;;;15.80;87.40;;;;;;4937611;29;20480;-41
2022/08/07 03:54:17;;;;;;;0.90;0.90;;;15.70;87.60;;;;;;4937450;29;20115;-41
2022/08/07 03:56:44;;;;;;;6.05;0.60;;;15.70;87.80;;;;;;4938025;29;20103;-44
2022/08/07 03:59:12;;;;;;;1.15;1.05;;;15.60;87.90;;;;;;4937732;29;20402;-46
2022/08/07 04:01:42;;;;;;;2.97;0.80;;;15.60;88.00;;;;;;4937510;29;20016;-42
2022/08/07 04:04:09;;;;;;;3.78;0.80;;;15.60;88.10;;;;;;4937304;29;20034;-42
2022/08/07 04:06:42;;;;;;;1.50;0.50;;;15.70;88.30;;;;;;4937380;29;20042;-41
2022/08/07 04:09:08;;;;;;;0.40;0.40;;;15.60;88.40;;;;;;4936587;29;20486;-42
2022/08/07 04:11:34;;;;;;;0.40;0.40;;;15.60;88.50;;;;;;4938700;29;20021;-42
2022/08/07 04:14:01;;;;;;;2.05;0.70;;;15.60;88.60;;;;;;4937874;29;20163;-42
2022/08/07 04:16:27;;;;;;;2.10;0.57;;;15.60;88.80;;;;;;4937837;29;20426;-43
2022/08/07 04:18:53;;;;;;;1.83;0.55;;;15.70;88.70;;;;;;4938309;29;20038;-43
2022/08/07 04:21:19;;;;;;;1.10;0.70;;;15.50;88.80;;;;;;4937874;29;20477;-45
2022/08/07 04:23:45;;;;;;;3.60;0.73;;;15.60;88.90;;;;;;4936985;29;20047;-43
2022/08/07 04:26:12;;;;;;;1.67;0.80;;;15.60;89.10;;;;;;4937228;29;20036;-43
2022/08/07 04:28:39;;;;;;;1.95;0.65;;;15.60;89.10;;;;;;4937171;29;20031;-45
2022/08/07 04:31:04;;;;;;;2.33;0.73;;;15.60;89.30;;;;;;4937158;29;20039;-43
2022/08/07 04:33:30;;;;;;;3.45;0.80;;;15.60;89.40;;;;;;4936751;29;20027;-45
2022/08/07 04:35:56;;;;;;;1.42;0.70;;;15.60;89.30;;;;;;4937066;29;20046;-45
2022/08/07 04:38:24;;;;;;;0.85;0.75;;;15.60;89.30;;;;;;4936988;29;20514;-44
2022/08/07 04:40:49;;;;;;;0.50;0.50;;;15.50;89.20;;;;;;4936958;29;20024;-43
2022/08/07 04:43:17;;;;;;;16.55;1.75;;;15.70;89.20;;;;;;4936652;29;20031;-44
2022/08/07 04:45:48;;;;;;;3.92;0.73;;;15.70;89.10;;;;;;4936825;29;20032;-42
2022/08/07 04:48:25;;;;;;;1.60;0.70;;;15.70;88.80;;;;;;4936734;29;20030;-45
2022/08/07 04:50:59;;;;;;;4.13;0.50;;;15.70;89.90;;;;;;4936791;29;20023;-44
2022/08/07 04:53:34;;;;;;;6.03;0.90;;;15.70;89.10;;;;;;4935360;29;20110;-42
2022/08/07 04:56:33;;;;;;;0.50;0.50;;;15.70;89.30;;;;;;4936847;29;20075;-46
2022/08/07 04:59:11;;;;;;;1.70;0.63;;;15.90;88.90;;;;;;4937153;29;20023;-42
2022/08/07 05:01:59;;;;;;;0.73;0.73;;;16.10;88.50;;;;;;4936699;29;20505;-45
2022/08/07 05:04:40;;;;;;;0.73;0.60;;;16.20;87.90;;;;;;4936630;29;20034;-43
2022/08/07 05:07:19;;;;;;;3.42;0.55;;;16.30;88.00;;;;;;4936563;29;20034;-45
2022/08/07 05:09:56;;;;;;;0.52;0.52;;;16.60;86.90;;;;;;4936541;29;20027;-43
2022/08/07 05:12:28;;;;;;;0.50;0.50;;;16.70;86.40;;;;;;4936260;29;20026;-43
2022/08/07 05:15:14;;;;;;;1.95;0.70;;;16.90;85.60;;;;;;4936512;29;20114;-43
2022/08/07 05:17:48;;;;;;;1.70;0.60;;;17.10;85.50;;;;;;4936438;29;20032;-42
2022/08/07 05:20:16;;;;;;;0.45;0.40;;;17.20;85.10;;;;;;4936416;29;20125;-42
2022/08/07 05:22:45;;;;;;;1.17;0.80;;;17.40;84.40;;;;;;4935895;29;20111;-43
2022/08/07 05:25:14;;;;;;;0.50;0.50;;;17.60;84.20;;;;;;4936202;29;20055;-42
2022/08/07 05:27:41;;;;;;;1.25;0.50;;;17.80;83.40;;;;;;4936201;29;20036;-42
2022/08/07 05:30:17;;;;;;;1.33;0.85;;;18.00;83.20;;;;;;4936084;29;20032;-43
2022/08/07 05:32:46;;;;;;;2.80;0.60;;;18.10;82.50;;;;;;4935773;29;20024;-43
2022/08/07 05:35:12;;;;;;;0.55;0.55;;;18.30;82.50;;;;;;4936165;29;20031;-40
2022/08/07 05:37:39;;;;;;;0.50;0.50;;;18.50;81.80;;;;;;4935942;29;20453;-46
2022/08/07 05:40:05;;;;;;;1.05;0.60;;;18.70;81.70;;;;;;4935959;29;20382;-45
2022/08/07 05:42:31;;;;;;;2.17;0.60;;;18.90;80.10;;;;;;4935447;29;20038;-46
2022/08/07 05:44:57;;;;;;;1.88;0.40;;;19.00;80.30;;;;;;4935916;29;20477;-41
2022/08/07 05:47:23;;;;;;;1.85;0.57;;;19.10;79.90;;;;;;4936041;29;20708;-45
2022/08/07 05:49:50;;;;;;;0.55;0.47;;;19.40;79.40;;;;;;4935786;29;20023;-43
2022/08/07 05:52:17;;;;;;;1.08;0.60;;;19.70;78.60;;;;;;4935027;29;20437;-44
2022/08/07 05:54:43;;;;;;;0.70;0.47;;;19.80;77.30;;;;;;4929713;29;20406;-46
2022/08/07 05:57:09;;;;;;;0.95;0.75;;;19.70;77.60;;;;;;4928762;29;20028;-46
2022/08/07 05:59:40;;;;;;;3.13;0.80;;;19.80;77.80;;;;;;4935596;29;20030;-41
2022/08/07 06:02:12;;;;;;;2.38;0.50;;;20.00;77.20;;;;;;4935173;29;20230;-50
2022/08/07 06:04:40;;;;;;;0.80;0.57;;;20.20;76.50;;;;;;4916488;29;20035;-42
2022/08/07 06:07:07;;;;;;;1.02;0.93;;;20.20;76.30;;;;;;4916608;29;20302;-43
2022/08/07 06:09:33;;;;;;;5.18;0.60;;;20.50;75.50;;;;;;4916461;29;20099;-46
2022/08/07 06:11:59;;;;;;;0.35;0.32;;;20.60;75.80;;;;;;4916203;29;20112;-46
2022/08/07 06:14:25;;;;;;;0.50;0.50;;;20.80;75.90;;;;;;4916389;29;20108;-44
2022/08/07 06:16:51;;;;;;;1.25;0.40;;;21.20;74.50;;;;;;4916526;29;20465;-46
2022/08/07 06:19:18;;;;;;;0.47;0.40;;;21.40;73.60;;;;;;4916273;29;20024;-48
2022/08/07 06:21:45;;;;;;;1.65;0.52;;;21.50;73.00;;;;;;4916104;29;20063;-44
2022/08/07 06:24:11;;;;;;;0.35;0.35;;;21.60;73.00;;;;;;4915887;29;20076;-43
2022/08/07 06:26:41;;;;;;;0.57;0.40;;;21.70;72.90;;;;;;4916225;29;20028;-45
2022/08/07 06:29:07;;;;;;;1.42;0.38;;;22.10;71.80;;;;;;4920056;29;20099;-42
2022/08/07 06:31:34;;;;;;;2.80;0.52;;;22.40;71.60;;;;;;4934434;29;20028;-42
2022/08/07 06:33:59;;;;;;;3.33;3.05;;;22.60;71.30;;;;;;4934618;29;20024;-42
2022/08/07 06:36:28;;;;;;;12.32;7.75;;;22.60;71.70;;;;;;4934649;29;20417;-42
2022/08/07 06:38:54;;;;;;;16.70;12.80;;;22.80;71.70;;;;;;4934808;29;20425;-42
2022/08/07 06:41:31;;;;;;;2.45;1.30;;;23.30;70.40;;;;;;4934611;29;20032;-47
2022/08/07 06:43:59;;;;;;;1.70;1.42;;;23.80;68.90;;;;;;4934548;29;20489;-41
2022/08/07 06:46:25;;;;;;;2.72;1.73;;;23.90;68.00;;;;;;4934789;29;20401;-42
2022/08/07 06:48:50;;;;;;;1.20;1.10;;;23.70;67.80;;;;;;4934633;29;20030;-42
2022/08/07 06:51:20;;;;;;;2.15;0.60;;;23.60;68.80;;;;;;4933536;29;20031;-41
2022/08/07 06:53:47;;;;;;;3.85;0.80;;;23.50;68.50;;;;;;4932334;29;20035;-48
2022/08/07 06:56:14;;;;;;;0.40;0.40;;;23.90;68.10;;;;;;4933946;29;20016;-43
2022/08/07 06:58:41;;;;;;;1.40;0.60;;;24.10;67.80;;;;;;4934383;29;20043;-44
2022/08/07 07:01:10;;;;;;;0.55;0.40;;;24.60;66.50;;;;;;4934147;29;20086;-43
2022/08/07 07:03:38;;;;;;;1.13;0.40;;;25.10;65.60;;;;;;4932977;29;20024;-43
2022/08/07 07:06:05;;;;;;;5.65;0.98;;;25.10;64.50;;;;;;4933567;29;20051;-43
2022/08/07 07:08:30;;;;;;;0.73;0.50;;;25.00;65.80;;;;;;4934376;29;20485;-46
2022/08/07 07:10:56;;;;;;;1.75;0.43;;;25.10;65.00;;;;;;4933119;29;20030;-43
2022/08/07 07:13:28;;;;;;;1.55;0.50;;;25.00;65.00;;;;;;4934005;29;20102;-45
2022/08/07 07:15:59;;;;;;;2.00;0.80;;;24.70;64.60;;;;;;4934370;29;20025;-49
2022/08/07 07:18:30;;;;;;;1.75;0.50;;;25.00;65.00;;;;;;4933687;29;20497;-43
2022/08/07 07:21:09;;;;;;;4.10;0.50;;;25.10;64.00;;;;;;4934042;29;20110;-43
2022/08/07 07:23:35;;;;;;;3.15;0.65;;;25.50;64.60;;;;;;4933861;29;20449;-45
2022/08/07 07:26:04;;;;;;;0.77;0.45;;;25.90;63.20;;;;;;4933807;29;20027;-44
2022/08/07 07:28:41;;;;;;;2.00;0.88;;;26.20;62.60;;;;;;4934138;29;20404;-43
2022/08/07 07:31:14;;;;;;;4.68;1.00;;;26.40;62.10;;;;;;4934159;29;20485;-43
2022/08/07 07:33:42;;;;;;;1.00;0.60;;;26.80;61.50;;;;;;4933443;29;20032;-45
2022/08/07 07:36:09;;;;;;;2.65;0.50;;;27.00;60.70;;;;;;4933938;29;20024;-44
2022/08/07 07:38:34;;;;;;;5.78;1.05;;;26.70;61.00;;;;;;4934231;29;20083;-43
2022/08/07 07:41:06;;;;;;;1.35;0.47;;;26.70;60.80;;;;;;4933994;29;20028;-43
2022/08/07 07:43:33;;;;;;;2.60;0.63;;;27.10;61.00;;;;;;4933348;29;20030;-48
2022/08/07 07:46:00;;;;;;;0.63;0.60;;;27.60;59.30;;;;;;4933642;29;20036;-47
2022/08/07 07:48:28;;;;;;;4.63;0.45;;;27.20;59.30;;;;;;4933772;29;20043;-43
2022/08/07 07:50:55;;;;;;;1.60;1.30;;;27.50;59.60;;;;;;4933426;29;20027;-48
2022/08/07 07:53:23;;;;;;;0.90;0.88;;;27.70;59.40;;;;;;4932373;29;20035;-47
2022/08/07 07:55:52;;;;;;;2.95;0.88;;;27.80;59.20;;;;;;4933845;29;20432;-46
2022/08/07 07:58:20;;;;;;;3.05;0.52;;;27.80;59.00;;;;;;4934463;29;20615;-45
2022/08/07 08:00:47;;;;;;;1.00;0.60;;;27.80;58.80;;;;;;4934052;29;20074;-41
2022/08/07 08:03:15;;;;;;;0.93;0.52;;;27.90;58.70;;;;;;4932942;29;20031;-50
2022/08/07 08:05:42;;;;;;;1.13;0.65;;;28.10;58.60;;;;;;4933668;29;20040;-41
2022/08/07 08:08:10;;;;;;;1.48;0.70;;;27.90;58.50;;;;;;4933106;29;20035;-45
2022/08/07 08:10:36;;;;;;;0.40;0.40;;;28.20;58.70;;;;;;4932488;29;20434;-41
2022/08/07 08:13:04;;;;;;;1.70;0.52;;;28.00;58.30;;;;;;4931760;29;20020;-46
2022/08/07 08:15:35;;;;;;;2.30;0.57;;;27.80;59.30;;;;;;4933838;29;20028;-42
2022/08/07 08:18:02;;;;;;;1.27;0.80;;;28.30;58.90;;;;;;4929666;29;20051;-45
2022/08/07 08:20:31;;;;;;;3.38;1.48;;;28.90;58.40;;;;;;4932792;29;20541;-44
2022/08/07 08:28:28;;;;;;;3.30;1.60;;;28.80;57.80;;;;;;4940257;29;19922;-42
2022/08/07 08:30:58;;;;;;;8.00;2.70;;;28.90;57.80;;;;;;4954790;28;20098;-46
2022/08/07 08:33:30;;;;;;;3.63;2.05;;;29.00;57.00;;;;;;4935529;29;20008;-42
2022/08/07 08:35:57;;;;;;;4.15;1.88;;;28.50;57.70;;;;;;4937272;29;20028;-41
2022/08/07 08:38:26;;;;;;;2.20;1.58;;;28.10;58.50;;;;;;4925640;29;20028;-43
2022/08/07 08:41:01;;;;;;;2.40;1.67;;;28.30;58.70;;;;;;4918152;29;20409;-46
2022/08/07 08:43:32;;;;;;;3.60;1.05;;;28.90;58.00;;;;;;4917709;29;20025;-46
2022/08/07 08:46:23;;;;;;;3.38;0.68;;;28.80;57.70;;;;;;4916876;29;20044;-43
2022/08/07 08:49:00;;;;;;;1.48;0.60;;;28.50;58.80;;;;;;4918154;29;20032;-43
2022/08/07 08:51:27;;;;;;;0.95;0.55;;;28.50;58.40;;;;;;4935857;29;20036;-43
2022/08/07 08:54:09;;;;;;;2.45;0.93;;;27.80;59.20;;;;;;4936479;29;20023;-45
2022/08/07 08:56:42;;;;;;;0.50;0.45;;;27.20;60.30;;;;;;4936856;29;20039;-42
2022/08/07 08:59:31;;;;;;;0.95;0.63;;;26.60;61.60;;;;;;4936925;29;20405;-43
2022/08/07 09:02:31;;;;;;;0.73;0.73;;;26.30;62.40;;;;;;4937073;29;20027;-43
2022/08/07 09:05:18;;;;;;;3.72;0.65;;;26.10;63.30;;;;;;4936800;29;20024;-45
2022/08/07 09:08:01;;;;;;;0.90;0.70;;;26.00;64.50;;;;;;4917576;29;20119;-41
2022/08/07 09:10:35;;;;;;;1.30;0.57;;;25.90;64.60;;;;;;4917496;29;20097;-42
2022/08/07 09:13:15;;;;;;;5.43;0.90;;;25.60;64.00;;;;;;4926660;29;20754;-44
2022/08/07 09:16:20;;;;;;;3.30;0.65;;;25.40;64.80;;;;;;4936282;29;20040;-43
2022/08/07 09:19:13;;;;;;;2.55;0.68;;;25.10;66.20;;;;;;4915821;29;20036;-47
2022/08/07 09:22:10;;;;;;;0.98;0.98;;;25.00;66.30;;;;;;4936089;29;20024;-42
2022/08/07 09:24:38;;;;;;;1.65;1.13;;;24.80;67.20;;;;;;4921715;29;20087;-42
2022/08/07 09:27:37;;;;;;;2.65;0.70;;;24.50;68.20;;;;;;4917164;29;20075;-44
2022/08/07 09:30:07;;;;;;;1.35;0.80;;;24.50;68.10;;;;;;4917138;29;20020;-45
2022/08/07 09:33:14;;;;;;;3.25;0.80;;;24.50;67.80;;;;;;4916584;29;20028;-43
2022/08/07 09:35:50;;;;;;;3.45;0.98;;;24.40;68.70;;;;;;4917654;29;20035;-45
2022/08/07 09:38:28;;;;;;;0.90;0.77;;;24.40;68.80;;;;;;4936066;29;20028;-42
2022/08/07 09:41:01;;;;;;;2.50;0.90;;;24.40;68.80;;;;;;4935577;29;20028;-44
2022/08/07 09:43:55;;;;;;;1.13;0.50;;;24.50;68.20;;;;;;4934183;29;20179;-45
2022/08/07 09:46:42;;;;;;;1.38;0.68;;;24.80;67.90;;;;;;4935636;29;20034;-43
2022/08/07 09:49:27;;;;;;;1.75;0.65;;;24.80;67.90;;;;;;4934340;29;20036;-42
2022/08/07 09:52:01;;;;;;;0.93;0.70;;;24.80;68.80;;;;;;4935524;29;20074;-39
2022/08/07 09:54:50;;;;;;;0.90;0.85;;;25.10;67.90;;;;;;4934303;29;20043;-43
2022/08/07 09:57:52;;;;;;;1.20;0.93;;;25.20;68.80;;;;;;4934128;29;20130;-45
2022/08/07 10:00:23;;;;;;;1.42;0.80;;;25.30;67.40;;;;;;4935488;29;20027;-43
2022/08/07 10:03:00;;;;;;;1.23;0.85;;;25.30;68.00;;;;;;4935205;29;20036;-46
2022/08/07 10:05:34;;;;;;;1.23;0.80;;;25.40;67.20;;;;;;4935372;29;20460;-44
2022/08/07 10:08:42;;;;;;;2.30;0.90;;;25.40;67.20;;;;;;4935257;29;20045;-41
2022/08/07 10:11:20;;;;;;;0.98;0.88;;;25.30;67.40;;;;;;4922129;29;20416;-43
2022/08/07 10:14:10;;;;;;;1.65;0.70;;;25.10;67.80;;;;;;4917040;29;20103;-41
2022/08/07 10:17:20;;;;;;;1.77;1.10;;;25.10;68.00;;;;;;4916261;29;20184;-43
2022/08/07 10:19:54;;;;;;;0.98;0.82;;;25.30;67.50;;;;;;4916242;29;20028;-42
2022/08/07 10:22:28;;;;;;;0.80;0.70;;;25.40;67.00;;;;;;4916079;29;20024;-42
2022/08/07 10:25:03;;;;;;;3.05;0.93;;;25.20;66.30;;;;;;4916309;29;20476;-42
2022/08/07 10:27:47;;;;;;;;;;;25.20;66.50;;;;;;4928181;29;20032;-43
2022/08/07 10:30:32;;;;;;;0.80;0.80;;;25.20;67.20;;;;;;4934713;29;19906;-48
2022/08/07 10:33:43;;;;;;;1.37;0.70;;;25.10;67.10;;;;;;4934108;29;20437;-44
2022/08/07 10:36:43;;;;;;;1.25;0.80;;;25.10;66.10;;;;;;4910753;29;20047;-46
2022/08/07 10:39:39;;;;;;;0.73;0.60;;;25.10;65.40;;;;;;4928939;29;20023;-45
2022/08/07 10:42:23;;;;;;;;;;;25.30;65.10;;;;;;4935317;29;20062;-42
2022/08/07 10:45:00;;;;;;;0.63;0.55;;;25.40;64.30;;;;;;4934657;29;19915;-42
2022/08/07 10:47:46;;;;;;;0.70;0.38;;;25.40;64.10;;;;;;4935021;29;20063;-42
2022/08/07 10:50:28;;;;;;;1.27;0.70;;;25.40;62.80;;;;;;4934795;29;20103;-42
2022/08/07 10:53:14;;;;;;;0.80;0.65;;;25.40;65.30;;;;;;4933910;29;20022;-40
2022/08/07 10:55:46;;;;;;;1.42;0.50;;;25.50;64.50;;;;;;4933922;29;20030;-41
2022/08/07 10:58:36;;;;;;;0.68;0.65;;;25.50;64.90;;;;;;4934912;29;20074;-41
2022/08/07 11:01:25;;;;;;;0.52;0.50;;;25.60;64.40;;;;;;4934311;29;20034;-42
2022/08/07 11:04:04;;;;;;;1.73;0.60;;;25.40;65.10;;;;;;4934110;29;20401;-41
2022/08/07 11:06:41;;;;;;;3.67;0.70;;;25.40;64.90;;;;;;4934293;29;20076;-42
2022/08/07 11:09:13;;;;;;;0.75;0.55;;;25.40;64.10;;;;;;4934331;29;20179;-47
2022/08/07 11:11:46;;;;;;;2.03;0.85;;;25.30;64.10;;;;;;4934231;29;20493;-41
2022/08/07 11:14:42;;;;;;;0.65;0.60;;;25.30;64.90;;;;;;4934036;29;20452;-43
2022/08/07 11:17:18;;;;;;;0.73;0.50;;;25.30;64.60;;;;;;4934251;29;20442;-44
2022/08/07 11:19:56;;;;;;;1.00;0.60;;;25.30;63.70;;;;;;4934305;29;20110;-47
2022/08/07 11:22:33;;;;;;;2.25;0.55;;;25.30;63.80;;;;;;4933919;29;20031;-42
2022/08/07 11:25:09;;;;;;;2.47;0.50;;;25.30;63.30;;;;;;4934393;29;20520;-44
2022/08/07 11:27:45;;;;;;;0.50;0.50;;;25.30;62.80;;;;;;4934297;29;20463;-45
2022/08/07 11:30:16;;;;;;;42.22;34.13;;;25.20;62.10;;;;;;4933105;29;20030;-44
2022/08/07 11:32:58;;;;;;;3.05;1.20;;;25.10;63.10;;;;;;4933767;29;20022;-46
2022/08/07 11:35:29;;;;;;;2.55;0.70;;;25.20;62.40;;;;;;4934334;29;20034;-45
2022/08/07 11:38:09;;;;;;;0.95;0.45;;;25.20;62.00;;;;;;4934322;29;20032;-45
2022/08/07 11:40:41;;;;;;;2.88;0.50;;;25.10;62.00;;;;;;4934329;29;20023;-42
2022/08/07 11:43:17;;;;;;;1.15;1.05;;;25.00;62.50;;;;;;4933693;29;20028;-42
2022/08/07 11:45:43;;;;;;;1.50;0.47;;;25.00;62.40;;;;;;4934281;29;20031;-45
2022/08/07 11:48:17;;;;;;;7.95;0.57;;;25.00;62.40;;;;;;4934113;29;20600;-49
2022/08/07 11:51:25;;;;;;;5.32;0.70;;;25.00;62.30;;;;;;4932973;29;20071;-43
2022/08/07 11:54:18;;;;;;;1.50;0.52;;;24.90;62.00;;;;;;4933606;29;20063;-42
2022/08/07 11:57:15;;;;;;;0.95;0.60;;;24.90;62.00;;;;;;4933682;29;20027;-44
2022/08/07 11:59:49;;;;;;;0.65;0.50;;;24.90;62.30;;;;;;4934141;29;20023;-43
2022/08/07 12:02:54;;;;;;;1.98;0.60;;;25.00;61.60;;;;;;4933591;29;20114;-43
2022/08/07 12:05:44;;;;;;;2.50;0.50;;;25.10;61.30;;;;;;4937753;29;20042;-41
2022/08/07 12:08:17;;;;;;;2.15;0.40;;;25.10;62.10;;;;;;4937557;29;20040;-45
2022/08/07 12:10:55;;;;;;;2.72;0.43;;;25.30;61.60;;;;;;4936301;29;20082;-42
2022/08/07 12:13:28;;;;;;;0.50;0.50;;;25.30;61.60;;;;;;4937140;29;20028;-45
2022/08/07 12:16:01;;;;;;;0.50;0.50;;;25.30;61.00;;;;;;4937605;29;20024;-43
2022/08/07 12:18:33;;;;;;;0.88;0.60;;;25.30;60.80;;;;;;4937399;29;20032;-43
2022/08/07 12:21:35;;;;;;;2.63;0.65;;;25.20;60.30;;;;;;4937243;29;20027;-45
2022/08/07 12:24:16;;;;;;;0.50;0.50;;;25.20;60.70;;;;;;4936790;29;20385;-42
2022/08/07 12:27:18;;;;;;;1.88;0.60;;;25.20;60.70;;;;;;4936969;29;20102;-44
2022/08/07 12:30:00;;;;;;;1.55;0.60;;;25.50;59.80;;;;;;4915864;29;20028;-42
2022/08/07 12:32:41;;;;;;;0.63;0.50;;;25.50;60.10;;;;;;4934915;29;20031;-46
2022/08/07 12:35:11;;;;;;;3.50;0.75;;;25.50;60.50;;;;;;4937084;29;20062;-44
2022/08/07 12:37:39;;;;;;;1.20;0.40;;;25.60;60.30;;;;;;4936930;29;20035;-43
2022/08/07 12:40:07;;;;;;;2.45;0.50;;;25.70;60.00;;;;;;4936977;29;20059;-44
2022/08/07 12:42:34;;;;;;;0.98;0.30;;;25.80;58.00;;;;;;4935348;29;20032;-42
2022/08/07 12:45:05;;;;;;;1.20;0.60;;;25.70;58.90;;;;;;4937610;29;20397;-42
2022/08/07 12:47:39;;;;;;;1.08;0.52;;;25.60;59.20;;;;;;4936926;29;20036;-42
2022/08/07 12:50:17;;;;;;;2.42;0.80;;;25.70;59.70;;;;;;4937094;29;20040;-43
2022/08/07 12:52:55;;;;;;;2.75;0.40;;;25.70;59.30;;;;;;4936607;29;20481;-46
2022/08/07 12:55:26;;;;;;;0.93;0.50;;;25.90;58.50;;;;;;4936162;29;20481;-44
2022/08/07 12:57:53;;;;;;;2.60;0.60;;;25.90;58.80;;;;;;4936851;29;20110;-42
2022/08/07 13:00:22;;;;;;;0.57;0.57;;;25.80;59.00;;;;;;4936898;29;20512;-47
2022/08/07 13:03:23;;;;;;;0.70;0.52;;;25.80;59.70;;;;;;4936464;29;20064;-43
2022/08/07 13:06:14;;;;;;;0.98;0.57;;;25.90;58.90;;;;;;4936350;29;20090;-42
2022/08/07 13:08:55;;;;;;;1.63;0.70;;;26.00;58.60;;;;;;4936415;29;20035;-42
2022/08/07 13:11:54;;;;;;;0.50;0.50;;;25.90;58.80;;;;;;4936418;29;20103;-45
2022/08/07 13:14:29;;;;;;;0.30;0.30;;;25.90;58.20;;;;;;4935540;29;20051;-44
2022/08/07 13:17:17;;;;;;;1.65;0.50;;;25.70;58.00;;;;;;4936422;29;20063;-41
2022/08/07 13:20:23;;;;;;;2.05;0.93;;;25.80;58.30;;;;;;4936433;29;20055;-41
2022/08/07 13:23:09;;;;;;;0.45;0.32;;;25.70;58.30;;;;;;4931468;29;20035;-42